createdAt,value
2023-04-24T00:02:07.848Z,99111.81
2023-04-24T00:07:09.786Z,99105.16
2023-04-24T00:12:11.112Z,99101.06
2023-04-24T00:17:12.459Z,99097.91
2023-04-24T00:22:15.506Z,99097.00
2023-04-24T00:27:16.851Z,99091.25
2023-04-24T00:32:18.972Z,99089.16
2023-04-24T00:37:20.650Z,99089.75
2023-04-24T00:42:22.005Z,99081.25
2023-04-24T00:47:23.467Z,99076.09
2023-04-24T00:52:25.248Z,99080.44
2023-04-24T00:57:27.364Z,99060.13
2023-04-24T01:02:28.843Z,99064.22
2023-04-24T01:07:30.501Z,99063.19
2023-04-24T01:12:31.872Z,99056.81
2023-04-24T01:17:33.756Z,99054.94
2023-04-24T01:22:35.709Z,99059.63
2023-04-24T01:27:37.109Z,99046.00
2023-04-24T01:32:39.581Z,99039.78
2023-04-24T01:37:41.157Z,99042.94
2023-04-24T01:42:43.482Z,99041.97
2023-04-24T01:47:45.052Z,99049.66
2023-04-24T01:52:46.489Z,99043.66
2023-04-24T01:57:48.022Z,99048.47
2023-04-24T02:02:50.239Z,99051.50
2023-04-24T02:07:51.688Z,99043.72
2023-04-24T02:12:53.091Z,99033.41
2023-04-24T02:17:54.462Z,99039.84
2023-04-24T02:22:56.075Z,99030.44
2023-04-24T02:27:57.463Z,99032.06
2023-04-24T02:32:58.833Z,99038.06
2023-04-24T02:38:00.307Z,99028.91
2023-04-24T02:43:01.771Z,99035.22
2023-04-24T02:48:03.238Z,99034.28
2023-04-24T02:53:04.804Z,99053.63
2023-04-24T02:58:06.855Z,99050.94
2023-04-24T03:03:08.344Z,99063.69
2023-04-24T03:08:09.827Z,99078.78
2023-04-24T03:13:11.177Z,99063.69
2023-04-24T03:18:12.617Z,99064.50
2023-04-24T03:23:14.073Z,99064.72
2023-04-24T03:28:15.493Z,99056.72
2023-04-24T03:33:16.866Z,99068.31
2023-04-24T03:38:18.201Z,99078.06
2023-04-24T03:43:19.557Z,99087.22
2023-04-24T03:48:20.871Z,99085.34
2023-04-24T03:53:22.715Z,99092.63
2023-04-24T03:58:24.103Z,99098.16
2023-04-24T04:03:26.418Z,99100.72
2023-04-24T04:08:28.020Z,99112.88
2023-04-24T04:13:29.345Z,99115.19
2023-04-24T04:18:30.834Z,99125.84
2023-04-24T04:23:32.991Z,99126.84
2023-04-24T04:28:35.792Z,99133.50
2023-04-24T04:33:39.076Z,99137.09
2023-04-24T04:38:42.862Z,99138.84
2023-04-24T04:43:44.465Z,99151.13
2023-04-24T04:48:46.695Z,99147.06
2023-04-24T04:53:48.003Z,99158.31
2023-04-24T04:58:49.355Z,99168.34
2023-04-24T05:03:50.843Z,99174.13
2023-04-24T05:08:52.284Z,99180.16
2023-04-24T05:13:53.635Z,99189.38
2023-04-24T05:18:54.999Z,99186.94
2023-04-24T05:23:56.333Z,99200.59
2023-04-24T05:28:57.674Z,99209.22
2023-04-24T05:33:59.065Z,99224.19
2023-04-24T05:39:00.588Z,99227.25
2023-04-24T05:44:02.007Z,99226.44
2023-04-24T05:49:03.664Z,99237.91
2023-04-24T05:54:05.065Z,99252.66
2023-04-24T05:59:06.480Z,99251.63
2023-04-24T06:04:08.238Z,99253.13
2023-04-24T06:09:09.651Z,99274.09
2023-04-24T06:14:11.088Z,99272.31
2023-04-24T06:19:12.513Z,99272.78
2023-04-24T06:24:15.413Z,99272.31
2023-04-24T06:29:16.757Z,99270.22
2023-04-24T06:34:18.109Z,99285.59
2023-04-24T06:39:19.484Z,99296.38
2023-04-24T06:44:21.003Z,99301.53
2023-04-24T06:49:22.333Z,99309.41
2023-04-24T06:54:23.732Z,99293.59
2023-04-24T06:59:25.897Z,99293.09
2023-04-24T07:04:27.535Z,99272.75
2023-04-24T07:09:29.365Z,99282.63
2023-04-24T07:14:30.818Z,99278.41
2023-04-24T07:19:32.485Z,99272.91
2023-04-24T07:24:33.966Z,99272.50
2023-04-24T07:29:35.376Z,99279.75
2023-04-24T07:34:36.769Z,99268.38
2023-04-24T07:39:38.105Z,99274.34
2023-04-24T07:44:39.430Z,99274.28
2023-04-24T07:49:42.349Z,99275.63
2023-04-24T07:54:44.212Z,99291.81
2023-04-24T07:59:45.899Z,99282.56
2023-04-24T08:04:47.521Z,99290.22
2023-04-24T08:09:49.026Z,99293.19
2023-04-24T08:14:50.528Z,99283.38
2023-04-24T08:19:53.298Z,99280.75
2023-04-24T08:24:55.467Z,99278.63
2023-04-24T08:29:58.280Z,99275.53
2023-04-24T08:35:00.320Z,99281.28
2023-04-24T08:40:06.586Z,99295.47
2023-04-24T08:45:08.557Z,99309.88
2023-04-24T08:50:12.930Z,99321.44
2023-04-24T08:55:15.791Z,99326.78
2023-04-24T09:00:17.949Z,99324.00
2023-04-24T09:05:21.372Z,99337.53
2023-04-24T09:10:24.263Z,99324.38
2023-04-24T09:15:25.805Z,99336.47
2023-04-24T09:20:27.154Z,99339.69
2023-04-24T09:25:37.085Z,99348.94
2023-04-24T09:30:38.512Z,99343.25
2023-04-24T09:35:44.408Z,99363.97
2023-04-24T09:40:45.795Z,99368.31
2023-04-24T09:45:47.226Z,99370.44
2023-04-24T09:50:52.885Z,99387.78
2023-04-24T09:55:54.432Z,99389.78
2023-04-24T10:00:57.726Z,99397.91
2023-04-24T10:06:00.736Z,99392.88
2023-04-24T10:11:03.022Z,99395.88
2023-04-24T10:16:05.232Z,99410.59
2023-04-24T10:21:07.404Z,99418.09
2023-04-24T10:26:10.678Z,99428.19
2023-04-24T10:31:13.605Z,99441.75
2023-04-24T10:36:16.522Z,99460.00
2023-04-24T10:41:21.595Z,99469.81
2023-04-24T10:46:23.199Z,99476.44
2023-04-24T10:51:26.762Z,99460.03
2023-04-24T10:56:28.262Z,99455.25
2023-04-24T11:01:33.135Z,99463.81
2023-04-24T11:06:37.031Z,99466.50
2023-04-24T11:11:45.149Z,99460.44
2023-04-24T11:16:53.706Z,99469.28
2023-04-24T11:22:03.885Z,99461.69
2023-04-24T11:27:05.244Z,99465.59
2023-04-24T11:32:41.161Z,99456.63
2023-04-24T11:37:45.276Z,99472.19
2023-04-24T11:42:50.971Z,99465.56
2023-04-24T11:47:52.673Z,99482.56
2023-04-24T11:52:54.591Z,99472.09
2023-04-24T11:58:00.536Z,99487.13
2023-04-24T12:03:10.094Z,99495.53
2023-04-24T12:08:11.722Z,99502.69
2023-04-24T12:13:14.251Z,99489.06
2023-04-24T12:18:18.004Z,99500.06
2023-04-24T12:23:36.509Z,99496.75
2023-04-24T12:28:39.693Z,99497.94
2023-04-24T12:33:41.108Z,99505.34
2023-04-24T12:38:45.433Z,99509.69
2023-04-24T12:43:54.482Z,99497.78
2023-04-24T12:48:55.916Z,99498.50
2023-04-24T12:53:57.542Z,99505.97
2023-04-24T12:58:59.021Z,99513.75
2023-04-24T13:04:00.626Z,99498.41
2023-04-24T13:09:02.110Z,99511.00
2023-04-24T13:14:03.517Z,99515.06
2023-04-24T13:19:05.033Z,99529.63
2023-04-24T13:24:08.662Z,99529.28
2023-04-24T13:29:10.289Z,99533.78
2023-04-24T13:34:11.759Z,99529.41
2023-04-24T13:39:13.855Z,99576.47
2023-04-24T13:44:16.670Z,99575.06
2023-04-24T13:49:18.086Z,99546.00
2023-04-24T13:54:19.416Z,99555.63
2023-04-24T13:59:22.546Z,99539.16
2023-04-24T14:04:24.221Z,99560.41
2023-04-24T14:09:25.748Z,99546.09
2023-04-24T14:14:27.567Z,99539.16
2023-04-24T14:19:28.892Z,99536.28
2023-04-24T14:24:30.250Z,99524.31
2023-04-24T14:29:32.342Z,99524.44
2023-04-24T14:34:35.160Z,99528.81
2023-04-24T14:39:36.540Z,99534.63
2023-04-24T14:44:37.953Z,99537.59
2023-04-24T14:49:39.326Z,99538.41
2023-04-24T14:54:40.959Z,99545.81
2023-04-24T14:59:42.382Z,99569.69
2023-04-24T15:04:44.108Z,99551.19
2023-04-24T15:09:48.030Z,99558.63
2023-04-24T15:14:49.472Z,99541.38
2023-04-24T15:19:50.849Z,99546.81
2023-04-24T15:24:52.170Z,99542.91
2023-04-24T15:29:54.554Z,99553.66
2023-04-24T15:35:07.088Z,99548.50
2023-04-24T15:40:12.121Z,99547.00
2023-04-24T15:45:14.911Z,99556.31
2023-04-24T15:50:20.429Z,99566.06
2023-04-24T15:55:21.871Z,99561.41
2023-04-24T16:00:23.362Z,99555.75
2023-04-24T16:05:24.696Z,99566.28
2023-04-24T16:10:26.733Z,99560.81
2023-04-24T16:15:28.226Z,99566.34
2023-04-24T16:20:29.575Z,99573.91
2023-04-24T16:25:31.042Z,99573.44
2023-04-24T16:30:32.475Z,99573.31
2023-04-24T16:35:33.826Z,99578.50
2023-04-24T16:40:35.297Z,99577.75
2023-04-24T16:45:36.629Z,99573.66
2023-04-24T16:50:38.123Z,99578.03
2023-04-24T16:55:39.490Z,99584.44
2023-04-24T17:00:41.036Z,99583.56
2023-04-24T17:05:42.473Z,99595.31
2023-04-24T17:10:43.855Z,99595.19
2023-04-24T17:15:45.293Z,99594.75
2023-04-24T17:20:46.606Z,99603.34
2023-04-24T17:25:48.850Z,99600.56
2023-04-24T17:30:50.264Z,99593.97
2023-04-24T17:35:51.730Z,99606.00
2023-04-24T17:40:53.277Z,99604.88
2023-04-24T17:45:59.849Z,99604.22
2023-04-24T17:51:01.235Z,99601.34
2023-04-24T17:56:03.796Z,99596.75
2023-04-24T18:01:05.508Z,99590.91
2023-04-24T18:06:07.041Z,99599.63
2023-04-24T18:11:08.394Z,99607.66
2023-04-24T18:16:09.825Z,99613.63
2023-04-24T18:21:11.334Z,99617.00
2023-04-24T18:26:17.021Z,99614.91
2023-04-24T18:31:18.494Z,99625.19
2023-04-24T18:36:20.223Z,99627.59
2023-04-24T18:41:21.567Z,99640.63
2023-04-24T18:46:22.919Z,99641.75
2023-04-24T18:51:24.348Z,99633.50
2023-04-24T18:56:25.727Z,99642.00
2023-04-24T19:01:27.210Z,99650.19
2023-04-24T19:06:28.680Z,99659.22
2023-04-24T19:11:30.211Z,99670.97
2023-04-24T19:16:31.627Z,99689.53
2023-04-24T19:21:34.074Z,99691.44
2023-04-24T19:26:35.480Z,99692.94
2023-04-24T19:31:36.847Z,99696.84
2023-04-24T19:36:38.293Z,99699.00
2023-04-24T19:41:39.701Z,99698.72
2023-04-24T19:46:41.156Z,99693.94
2023-04-24T19:51:42.579Z,99693.28
2023-04-24T19:56:44.266Z,99693.31
2023-04-24T20:01:45.901Z,99692.50
2023-04-24T20:06:47.433Z,99693.41
2023-04-24T20:11:51.227Z,99689.59
2023-04-24T20:16:54.227Z,99690.56
2023-04-24T20:21:55.661Z,99697.03
2023-04-24T20:26:57.037Z,99707.19
2023-04-24T20:31:58.484Z,99703.22
2023-04-24T20:36:59.871Z,99699.47
2023-04-24T20:42:01.241Z,99703.50
2023-04-24T20:47:02.760Z,99696.69
2023-04-24T20:52:04.277Z,99696.25
2023-04-24T20:57:05.679Z,99692.31
2023-04-24T21:02:07.406Z,99689.97
2023-04-24T21:07:10.193Z,99691.56
2023-04-24T21:12:11.651Z,99685.00
2023-04-24T21:17:13.003Z,99683.31
2023-04-24T21:22:14.398Z,99676.47
2023-04-24T21:27:15.803Z,99670.91
2023-04-24T21:32:17.243Z,99670.91
2023-04-24T21:37:18.611Z,99676.47
2023-04-24T21:42:19.985Z,99662.16
2023-04-24T21:47:21.353Z,99671.66
2023-04-24T21:52:22.859Z,99667.53
2023-04-24T21:57:24.245Z,99666.50
2023-04-24T22:02:25.681Z,99666.69
2023-04-24T22:07:27.131Z,99662.72
2023-04-24T22:12:28.503Z,99665.00
2023-04-24T22:17:30.328Z,99656.50
2023-04-24T22:22:31.739Z,99661.56
2023-04-24T22:27:35.544Z,99667.00
2023-04-24T22:32:37.342Z,99673.84
2023-04-24T22:37:39.232Z,99678.66
2023-04-24T22:42:40.587Z,99669.75
2023-04-24T22:47:42.089Z,99668.00
2023-04-24T22:52:44.011Z,99664.44
2023-04-24T22:57:45.611Z,99660.16
2023-04-24T23:02:47.098Z,99659.06
2023-04-24T23:07:48.510Z,99658.69
2023-04-24T23:12:50.202Z,99666.31
2023-04-24T23:17:51.580Z,99668.63
2023-04-24T23:22:53.496Z,99662.25
2023-04-24T23:27:55.005Z,99658.69
2023-04-24T23:32:56.489Z,99660.81
2023-04-24T23:37:58.022Z,99657.25
2023-04-24T23:43:06.865Z,99641.53
2023-04-24T23:48:09.164Z,99656.53
2023-04-24T23:53:10.773Z,99651.78
2023-04-24T23:58:12.101Z,99639.19
